Wetterdaten: Woche 02.02.15 - 08.02.15 (KW6)
Datum Zeit Temp. A. Feuchte A. Luftdruck Regen Wind Richtung Sonnenschein ET UV Solar Taupunkt Windchill Windben Empfang
02.02.2015 00:00 -1,3 C 68 % 994,8 hPa 0,0 l/m 0,0 km/h (0 Bft) N 0,00 h 0,000 mm 0,0 UV-I 0 W/m -6,5 C -1,3 C 0,0 km/h (0 Bft) 0,00 %
02.02.2015 01:00 -1,5 C 70 % 995,0 hPa 0,0 l/m 0,0 km/h (0 Bft) N 0,00 h 0,000 mm 0,0 UV-I 0 W/m -6,3 C -1,5 C 0,0 km/h (0 Bft) 0,00 %
02.02.2015 02:00 -2,0 C 73 % 995,1 hPa 0,0 l/m 0,0 km/h (0 Bft) N 0,00 h 0,000 mm 0,0 UV-I 0 W/m -6,2 C -2,0 C 0,0 km/h (0 Bft) 0,00 %
02.02.2015 03:00 -1,5 C 78 % 995,0 hPa 0,0 l/m 0,1 km/h (0 Bft) N 0,00 h 0,000 mm 0,0 UV-I 0 W/m -4,9 C -1,5 C 1,0 km/h (0 Bft) 0,00 %
02.02.2015 04:00 -1,5 C 81 % 995,0 hPa 0,0 l/m 0,0 km/h (0 Bft) N 0,00 h 0,000 mm 0,0 UV-I 0 W/m -4,2 C -1,5 C 0,0 km/h (0 Bft) 0,00 %
02.02.2015 05:00 -1,1 C 82 % 994,9 hPa 0,0 l/m 0,2 km/h (0 Bft) N 0,00 h 0,000 mm 0,0 UV-I 0 W/m -3,9 C -1,1 C 1,0 km/h (0 Bft) 0,00 %
02.02.2015 06:00 -0,9 C 81 % 995,2 hPa 0,0 l/m 0,8 km/h (0 Bft) W-SW 0,00 h 0,000 mm 0,0 UV-I 0 W/m -3,7 C -0,9 C 2,0 km/h (1 Bft) 0,00 %
02.02.2015 07:00 -1,0 C 82 % 995,7 hPa 0,0 l/m 0,0 km/h (0 Bft) N 0,00 h 0,000 mm 0,0 UV-I 0 W/m -3,7 C -1,0 C 0,0 km/h (0 Bft) 0,00 %
02.02.2015 08:00 -0,8 C 80 % 996,0 hPa 0,0 l/m 0,0 km/h (0 Bft) N 0,00 h 0,000 mm 0,0 UV-I 24 W/m -3,7 C -0,8 C 0,0 km/h (0 Bft) 0,00 %
02.02.2015 09:00 -0,1 C 75 % 996,2 hPa 0,0 l/m 0,0 km/h (0 Bft) N 0,00 h 0,000 mm 0,0 UV-I 70 W/m -4,0 C -0,1 C 0,0 km/h (0 Bft) 0,00 %
02.02.2015 10:00 0,7 C 71 % 996,8 hPa 0,0 l/m 0,0 km/h (0 Bft) N 1,00 h 0,000 mm 1,0 UV-I 222 W/m -3,9 C 0,7 C 0,0 km/h (0 Bft) 0,00 %
02.02.2015 11:00 0,5 C 75 % 997,0 hPa 0,0 l/m 0,0 km/h (0 Bft) S 0,50 h 0,000 mm 1,3 UV-I 208 W/m -3,3 C 0,5 C 0,0 km/h (0 Bft) 0,00 %
02.02.2015 12:00 0,8 C 74 % 997,3 hPa 0,0 l/m 1,6 km/h (1 Bft) W-SW 0,00 h 0,000 mm 2,0 UV-I 197 W/m -3,4 C 0,8 C 5,0 km/h (1 Bft) 0,00 %
02.02.2015 13:00 1,3 C 69 % 997,7 hPa 0,3 l/m 2,6 km/h (1 Bft) W-SW 0,50 h 0,000 mm 2,0 UV-I 214 W/m -3,9 C 1,2 C 5,9 km/h (2 Bft) 0,00 %
02.02.2015 14:00 1,2 C 63 % 998,0 hPa 0,0 l/m 3,3 km/h (1 Bft) W-SW 0,50 h 0,000 mm 1,3 UV-I 193 W/m -5,0 C 1,2 C 5,9 km/h (2 Bft) 0,00 %
02.02.2015 15:00 0,5 C 62 % 998,5 hPa 0,3 l/m 2,3 km/h (1 Bft) SW 0,00 h 0,000 mm 1,0 UV-I 88 W/m -5,8 C 0,5 C 5,9 km/h (2 Bft) 0,00 %
02.02.2015 16:00 -0,4 C 65 % 998,7 hPa 0,0 l/m 2,5 km/h (1 Bft) W-SW 0,00 h 0,000 mm 0,0 UV-I 28 W/m -6,2 C -0,5 C 5,0 km/h (1 Bft) 0,00 %
02.02.2015 17:00 -1,7 C 69 % 999,2 hPa 0,0 l/m 0,1 km/h (0 Bft) N 0,00 h 0,000 mm 0,0 UV-I 0 W/m -6,7 C -1,7 C 1,0 km/h (0 Bft) 0,00 %
02.02.2015 18:00 -1,9 C 73 % 999,5 hPa 0,0 l/m 0,2 km/h (0 Bft) N 0,00 h 0,000 mm 0,0 UV-I 0 W/m -6,0 C -1,9 C 1,0 km/h (0 Bft) 0,00 %
02.02.2015 19:00 -1,2 C 72 % 999,9 hPa 0,0 l/m 0,4 km/h (0 Bft) NO 0,00 h 0,000 mm 0,0 UV-I 0 W/m -5,6 C -1,2 C 1,0 km/h (0 Bft) 0,00 %
02.02.2015 20:00 -1,1 C 72 % 1000,2 hPa 0,0 l/m 1,8 km/h (1 Bft) W-SW 0,00 h 0,000 mm 0,0 UV-I 0 W/m -5,5 C -1,1 C 5,0 km/h (1 Bft) 0,00 %
02.02.2015 21:00 -1,3 C 73 % 1000,6 hPa 0,0 l/m 0,1 km/h (0 Bft) N 0,00 h 0,000 mm 0,0 UV-I 0 W/m -5,6 C -1,3 C 1,0 km/h (0 Bft) 0,00 %
02.02.2015 22:00 -1,7 C 81 % 1000,7 hPa 0,0 l/m 0,3 km/h (0 Bft) N 0,00 h 0,000 mm 0,0 UV-I 0 W/m -4,6 C -1,7 C 2,0 km/h (1 Bft) 0,00 %
02.02.2015 23:00 -1,7 C 81 % 1001,0 hPa 0,0 l/m 0,3 km/h (0 Bft) N 0,00 h 0,000 mm 0,0 UV-I 0 W/m -4,6 C -1,7 C 2,0 km/h (1 Bft) 0,00 %
03.02.2015 00:00 -1,5 C 80 % 1001,2 hPa 0,0 l/m 0,1 km/h (0 Bft) N 0,00 h 0,000 mm 0,0 UV-I 0 W/m -4,4 C -1,5 C 1,0 km/h (0 Bft) 0,00 %
03.02.2015 01:00 -2,1 C 80 % 1001,7 hPa 0,0 l/m 0,0 km/h (0 Bft) N 0,00 h 0,000 mm 0,0 UV-I 0 W/m -5,2 C -2,1 C 0,0 km/h (0 Bft) 0,00 %
03.02.2015 02:00 -1,9 C 77 % 1002,1 hPa 0,0 l/m 0,1 km/h (0 Bft) N 0,00 h 0,000 mm 0,0 UV-I 0 W/m -5,3 C -1,9 C 1,0 km/h (0 Bft) 0,00 %
03.02.2015 03:00 -1,8 C 74 % 1002,3 hPa 0,0 l/m 0,2 km/h (0 Bft) N 0,00 h 0,000 mm 0,0 UV-I 0 W/m -5,8 C -1,8 C 1,0 km/h (0 Bft) 0,00 %
03.02.2015 04:00 -3,9 C 73 % 1002,6 hPa 0,0 l/m 0,0 km/h (0 Bft) N 0,00 h 0,000 mm 0,0 UV-I 0 W/m -7,9 C -3,9 C 0,0 km/h (0 Bft) 0,00 %
03.02.2015 05:00 -4,4 C 75 % 1002,8 hPa 0,0 l/m 0,0 km/h (0 Bft) N 0,00 h 0,000 mm 0,0 UV-I 0 W/m -8,3 C -4,4 C 0,0 km/h (0 Bft) 0,00 %
03.02.2015 06:00 -5,0 C 75 % 1002,8 hPa 0,0 l/m 0,0 km/h (0 Bft) N 0,00 h 0,000 mm 0,0 UV-I 0 W/m -8,8 C -5,0 C 0,0 km/h (0 Bft) 0,00 %
03.02.2015 07:00 -6,0 C 78 % 1003,1 hPa 0,0 l/m 0,0 km/h (0 Bft) N 0,00 h 0,000 mm 0,0 UV-I 12 W/m -9,2 C -6,0 C 0,0 km/h (0 Bft) 0,00 %
03.02.2015 08:00 -4,7 C 73 % 1003,3 hPa 0,0 l/m 0,0 km/h (0 Bft) N 1,00 h 0,000 mm 1,0 UV-I 149 W/m -8,8 C -4,7 C 0,0 km/h (0 Bft) 0,00 %
03.02.2015 09:00 -0,5 C 57 % 1002,5 hPa 0,0 l/m 0,0 km/h (0 Bft) N 1,00 h 0,000 mm 1,7 UV-I 202 W/m -7,9 C -0,5 C 0,0 km/h (0 Bft) 0,00 %
03.02.2015 10:00 0,5 C 55 % 1002,4 hPa 0,0 l/m 0,0 km/h (0 Bft) N 1,00 h 0,000 mm 2,0 UV-I 309 W/m -7,6 C 0,5 C 0,0 km/h (0 Bft) 0,00 %
03.02.2015 11:00 -0,3 C 59 % 1002,5 hPa 0,0 l/m 0,0 km/h (0 Bft) N 1,00 h 0,000 mm 2,0 UV-I 393 W/m -7,4 C -0,3 C 0,0 km/h (0 Bft) 0,00 %
03.02.2015 12:00 0,0 C 57 % 1002,2 hPa 0,3 l/m 0,0 km/h (0 Bft) N 1,00 h 0,000 mm 2,0 UV-I 387 W/m -7,6 C 0,0 C 0,0 km/h (0 Bft) 0,00 %
03.02.2015 13:00 0,2 C 55 % 1001,9 hPa 0,0 l/m 0,2 km/h (0 Bft) N 1,00 h 0,000 mm 2,0 UV-I 305 W/m -7,8 C 0,2 C 1,0 km/h (0 Bft) 0,00 %
03.02.2015 14:00 0,2 C 54 % 1001,8 hPa 0,0 l/m 0,2 km/h (0 Bft) O 0,50 h 0,000 mm 1,3 UV-I 160 W/m -8,2 C 0,2 C 2,0 km/h (1 Bft) 0,00 %
03.02.2015 15:00 -0,1 C 54 % 1001,8 hPa 0,0 l/m 0,4 km/h (0 Bft) N 0,00 h 0,000 mm 1,0 UV-I 79 W/m -8,2 C -0,1 C 1,0 km/h (0 Bft) 0,00 %
03.02.2015 16:00 -0,9 C 59 % 1001,8 hPa 0,0 l/m 0,0 km/h (0 Bft) N 0,50 h 0,000 mm 0,0 UV-I 43 W/m -8,0 C -0,9 C 0,0 km/h (0 Bft) 0,00 %
03.02.2015 17:00 -3,2 C 65 % 1002,5 hPa 0,0 l/m 0,0 km/h (0 Bft) N 0,00 h 0,000 mm 0,0 UV-I 0 W/m -9,0 C -3,2 C 0,0 km/h (0 Bft) 0,00 %
03.02.2015 18:00 -4,6 C 71 % 1003,1 hPa 0,0 l/m 0,0 km/h (0 Bft) N 0,00 h 0,000 mm 0,0 UV-I 0 W/m -9,2 C -4,6 C 0,0 km/h (0 Bft) 0,00 %
03.02.2015 19:00 -5,2 C 72 % 1003,6 hPa 0,0 l/m 0,0 km/h (0 Bft) N 0,00 h 0,000 mm 0,0 UV-I 0 W/m -9,4 C -5,2 C 0,0 km/h (0 Bft) 0,00 %
03.02.2015 20:00 -5,7 C 73 % 1003,9 hPa 0,0 l/m 0,0 km/h (0 Bft) N 0,00 h 0,000 mm 0,0 UV-I 0 W/m -9,8 C -5,7 C 0,0 km/h (0 Bft) 0,00 %
03.02.2015 21:00 -6,8 C 75 % 1004,4 hPa 0,0 l/m 0,0 km/h (0 Bft) N 0,00 h 0,000 mm 0,0 UV-I 0 W/m -10,5 C -6,8 C 0,0 km/h (0 Bft) 0,00 %
03.02.2015 22:00 -7,2 C 77 % 1004,8 hPa 0,0 l/m 0,0 km/h (0 Bft) N 0,00 h 0,000 mm 0,0 UV-I 0 W/m -10,6 C -7,2 C 0,0 km/h (0 Bft) 0,00 %
03.02.2015 23:00 -7,5 C 74 % 1005,0 hPa 0,0 l/m 0,0 km/h (0 Bft) N 0,00 h 0,000 mm 0,0 UV-I 0 W/m -11,3 C -7,5 C 0,0 km/h (0 Bft) 0,00 %
04.02.2015 00:00 -7,8 C 73 % 1005,3 hPa 0,0 l/m 0,0 km/h (0 Bft) N 0,00 h 0,000 mm 0,0 UV-I 0 W/m -11,7 C -7,8 C 0,0 km/h (0 Bft) 0,00 %
04.02.2015 01:00 -7,9 C 73 % 1005,5 hPa 0,0 l/m 0,0 km/h (0 Bft) N 0,00 h 0,000 mm 0,0 UV-I 0 W/m -11,8 C -7,9 C 0,0 km/h (0 Bft) 0,00 %
04.02.2015 02:00 -8,3 C 74 % 1005,9 hPa 0,0 l/m 0,0 km/h (0 Bft) N 0,00 h 0,000 mm 0,0 UV-I 0 W/m -12,2 C -8,3 C 0,0 km/h (0 Bft) 0,00 %
04.02.2015 03:00 -7,8 C 75 % 1006,2 hPa 0,0 l/m 0,0 km/h (0 Bft) N 0,00 h 0,000 mm 0,0 UV-I 0 W/m -11,4 C -7,8 C 0,0 km/h (0 Bft) 0,00 %
04.02.2015 04:00 -7,5 C 74 % 1006,3 hPa 0,0 l/m 0,0 km/h (0 Bft) N 0,00 h 0,000 mm 0,0 UV-I 0 W/m -11,3 C -7,5 C 0,0 km/h (0 Bft) 0,00 %
04.02.2015 05:00 -8,6 C 72 % 1006,9 hPa 0,0 l/m 0,0 km/h (0 Bft) N 0,00 h 0,000 mm 0,0 UV-I 0 W/m -12,7 C -8,6 C 0,0 km/h (0 Bft) 0,00 %
04.02.2015 06:00 -9,3 C 72 % 1007,4 hPa 0,0 l/m 0,0 km/h (0 Bft) N 0,00 h 0,000 mm 0,0 UV-I 0 W/m -13,3 C -9,3 C 0,0 km/h (0 Bft) 0,00 %
04.02.2015 07:00 -8,0 C 74 % 1007,9 hPa 0,0 l/m 0,0 km/h (0 Bft) N 0,00 h 0,000 mm 0,0 UV-I 0 W/m -11,8 C -8,0 C 0,0 km/h (0 Bft) 0,00 %
04.02.2015 08:00 -6,4 C 76 % 1007,8 hPa 0,0 l/m 0,0 km/h (0 Bft) N 0,25 h 0,000 mm 1,0 UV-I 61 W/m -10,0 C -6,4 C 0,0 km/h (0 Bft) 0,00 %
04.02.2015 09:00 -5,1 C 75 % 1007,6 hPa 0,0 l/m 0,0 km/h (0 Bft) N 0,75 h 0,000 mm 1,0 UV-I 170 W/m -8,8 C -5,1 C 0,0 km/h (0 Bft) 0,00 %
04.02.2015 10:00 -3,1 C 69 % 1007,6 hPa 0,0 l/m 0,0 km/h (0 Bft) N 0,50 h 0,000 mm 1,0 UV-I 203 W/m -7,9 C -3,1 C 0,0 km/h (0 Bft) 0,00 %
04.02.2015 11:00 -2,0 C 64 % 1007,6 hPa 0,0 l/m 0,0 km/h (0 Bft) N 1,00 h 0,000 mm 2,0 UV-I 358 W/m -8,0 C -2,0 C 0,0 km/h (0 Bft) 0,00 %
04.02.2015 12:00 -2,2 C 63 % 1007,6 hPa 0,0 l/m 0,0 km/h (0 Bft) N 1,00 h 0,000 mm 2,0 UV-I 417 W/m -8,4 C -2,2 C 0,0 km/h (0 Bft) 0,00 %
04.02.2015 13:00 -1,1 C 62 % 1007,8 hPa 0,0 l/m 0,0 km/h (0 Bft) N 1,00 h 0,000 mm 2,0 UV-I 329 W/m -7,5 C -1,1 C 0,0 km/h (0 Bft) 0,00 %
04.02.2015 14:00 -1,3 C 62 % 1008,1 hPa 0,0 l/m 0,0 km/h (0 Bft) N 0,50 h 0,000 mm 1,7 UV-I 178 W/m -7,7 C -1,3 C 0,0 km/h (0 Bft) 0,00 %
04.02.2015 15:00 -1,3 C 62 % 1008,5 hPa 0,0 l/m 0,0 km/h (0 Bft) N 1,00 h 0,000 mm 1,0 UV-I 182 W/m -7,6 C -1,3 C 0,0 km/h (0 Bft) 0,00 %
04.02.2015 16:00 -1,9 C 63 % 1009,7 hPa 0,0 l/m 0,0 km/h (0 Bft) N 0,50 h 0,000 mm 1,0 UV-I 44 W/m -8,0 C -1,9 C 0,0 km/h (0 Bft) 0,00 %
04.02.2015 17:00 -3,5 C 66 % 1011,4 hPa 0,0 l/m 0,0 km/h (0 Bft) N 0,00 h 0,000 mm 0,0 UV-I 0 W/m -8,9 C -3,5 C 0,0 km/h (0 Bft) 0,00 %
04.02.2015 18:00 -4,6 C 71 % 1012,4 hPa 0,0 l/m 0,0 km/h (0 Bft) N 0,00 h 0,000 mm 0,0 UV-I 0 W/m -9,2 C -4,6 C 0,0 km/h (0 Bft) 0,00 %
04.02.2015 19:00 -5,7 C 75 % 1013,4 hPa 0,0 l/m 0,0 km/h (0 Bft) N 0,00 h 0,000 mm 0,0 UV-I 0 W/m -9,4 C -5,7 C 0,0 km/h (0 Bft) 0,00 %
04.02.2015 20:00 -6,7 C 78 % 1014,1 hPa 0,0 l/m 0,0 km/h (0 Bft) N 0,00 h 0,000 mm 0,0 UV-I 0 W/m -9,9 C -6,7 C 0,0 km/h (0 Bft) 0,00 %
04.02.2015 21:00 -6,9 C 79 % 1014,6 hPa 0,0 l/m 0,0 km/h (0 Bft) N 0,00 h 0,000 mm 0,0 UV-I 0 W/m -9,9 C -6,9 C 0,0 km/h (0 Bft) 0,00 %
04.02.2015 22:00 -6,5 C 79 % 1015,1 hPa 0,0 l/m 0,0 km/h (0 Bft) N 0,00 h 0,000 mm 0,0 UV-I 0 W/m -9,6 C -6,5 C 0,0 km/h (0 Bft) 0,00 %
04.02.2015 23:00 -7,1 C 78 % 1015,4 hPa 0,0 l/m 0,0 km/h (0 Bft) N 0,00 h 0,000 mm 0,0 UV-I 0 W/m -10,2 C -7,1 C 0,0 km/h (0 Bft) 0,00 %
05.02.2015 00:00 -7,1 C 78 % 1015,5 hPa 0,0 l/m 0,0 km/h (0 Bft) N 0,00 h 0,000 mm 0,0 UV-I 0 W/m -10,3 C -7,1 C 0,0 km/h (0 Bft) 0,00 %
05.02.2015 01:00 -6,7 C 78 % 1015,1 hPa 0,0 l/m 0,0 km/h (0 Bft) N 0,00 h 0,000 mm 0,0 UV-I 0 W/m -9,9 C -6,7 C 0,0 km/h (0 Bft) 0,00 %
05.02.2015 02:00 -5,7 C 76 % 1014,8 hPa 0,0 l/m 0,3 km/h (0 Bft) O-NO 0,00 h 0,000 mm 0,0 UV-I 0 W/m -9,3 C -5,7 C 1,0 km/h (0 Bft) 0,00 %
05.02.2015 03:00 -5,3 C 73 % 1014,3 hPa 0,0 l/m 2,3 km/h (1 Bft) O-NO 0,00 h 0,000 mm 0,0 UV-I 0 W/m -9,4 C -5,3 C 5,0 km/h (1 Bft) 0,00 %
05.02.2015 04:00 -5,0 C 70 % 1014,4 hPa 0,0 l/m 1,3 km/h (1 Bft) O-NO 0,00 h 0,000 mm 0,0 UV-I 0 W/m -9,7 C -5,0 C 3,0 km/h (1 Bft) 0,00 %
05.02.2015 05:00 -4,5 C 64 % 1014,0 hPa 0,0 l/m 2,7 km/h (1 Bft) O 0,00 h 0,000 mm 0,0 UV-I 0 W/m -10,2 C -4,5 C 4,9 km/h (1 Bft) 0,00 %
05.02.2015 06:00 -4,3 C 63 % 1013,5 hPa 0,0 l/m 4,2 km/h (1 Bft) O-NO 0,00 h 0,000 mm 0,0 UV-I 0 W/m -10,3 C -4,3 C 7,9 km/h (2 Bft) 0,00 %
05.02.2015 07:00 -3,9 C 61 % 1013,7 hPa 0,0 l/m 3,0 km/h (1 Bft) NO 0,00 h 0,000 mm 0,0 UV-I 6 W/m -10,3 C -3,9 C 6,9 km/h (2 Bft) 0,00 %
05.02.2015 08:00 -3,6 C 60 % 1014,0 hPa 0,0 l/m 4,1 km/h (1 Bft) O 0,25 h 0,000 mm 1,0 UV-I 80 W/m -10,2 C -4,1 C 7,9 km/h (2 Bft) 0,00 %
05.02.2015 09:00 -3,0 C 62 % 1013,5 hPa 0,0 l/m 16,6 km/h (3 Bft) O 1,00 h 0,000 mm 1,3 UV-I 222 W/m -9,3 C -10,8 C 24,0 km/h (4 Bft) 0,00 %
05.02.2015 10:00 -2,5 C 63 % 1013,5 hPa 0,0 l/m 21,7 km/h (4 Bft) O-SO 1,00 h 0,000 mm 2,0 UV-I 367 W/m -8,7 C -13,1 C 31,0 km/h (5 Bft) 0,00 %
05.02.2015 11:00 -2,0 C 64 % 1013,4 hPa 0,0 l/m 21,6 km/h (4 Bft) O-SO 1,00 h 0,000 mm 2,0 UV-I 393 W/m -7,9 C -12,2 C 28,1 km/h (4 Bft) 0,00 %
05.02.2015 12:00 -1,7 C 63 % 1013,3 hPa 0,0 l/m 21,4 km/h (4 Bft) O 1,00 h 0,000 mm 2,0 UV-I 531 W/m -7,8 C -12,3 C 27,0 km/h (4 Bft) 0,00 %
05.02.2015 13:00 -1,4 C 62 % 1013,2 hPa 0,0 l/m 23,9 km/h (4 Bft) O 1,00 h 0,000 mm 2,0 UV-I 384 W/m -7,6 C -12,7 C 32,0 km/h (5 Bft) 0,00 %
05.02.2015 14:00 -1,1 C 62 % 1013,5 hPa 0,0 l/m 19,0 km/h (3 Bft) O-SO 0,50 h 0,000 mm 1,0 UV-I 163 W/m -7,5 C -10,5 C 28,0 km/h (4 Bft) 0,00 %
05.02.2015 15:00 -0,9 C 63 % 1013,8 hPa 0,0 l/m 19,1 km/h (3 Bft) O-NO 0,50 h 0,000 mm 1,0 UV-I 100 W/m -7,0 C -9,7 C 26,0 km/h (4 Bft) 0,00 %
05.02.2015 16:00 -1,2 C 66 % 1014,8 hPa 0,0 l/m 18,4 km/h (3 Bft) O-SO 0,25 h 0,000 mm 1,0 UV-I 31 W/m -6,7 C -10,2 C 26,1 km/h (4 Bft) 0,00 %
05.02.2015 17:00 -1,5 C 67 % 1015,2 hPa 0,0 l/m 13,9 km/h (3 Bft) O-NO 0,00 h 0,000 mm 0,0 UV-I 0 W/m -6,7 C -7,7 C 21,0 km/h (4 Bft) 0,00 %
05.02.2015 18:00 -1,7 C 67 % 1016,0 hPa 0,0 l/m 21,7 km/h (4 Bft) O-SO 0,00 h 0,000 mm 0,0 UV-I 0 W/m -7,0 C -12,3 C 29,0 km/h (5 Bft) 0,00 %
05.02.2015 19:00 -1,6 C 66 % 1016,5 hPa 0,0 l/m 19,6 km/h (3 Bft) O-SO 0,00 h 0,000 mm 0,0 UV-I 0 W/m -7,2 C -11,1 C 26,0 km/h (4 Bft) 0,00 %
05.02.2015 20:00 -1,8 C 65 % 1017,1 hPa 0,0 l/m 20,9 km/h (4 Bft) O 0,00 h 0,000 mm 0,0 UV-I 0 W/m -7,4 C -12,2 C 30,0 km/h (5 Bft) 0,00 %
05.02.2015 21:00 -2,2 C 65 % 1017,8 hPa 0,0 l/m 24,6 km/h (4 Bft) O 0,00 h 0,000 mm 0,0 UV-I 0 W/m -7,8 C -14,1 C 32,0 km/h (5 Bft) 0,00 %
05.02.2015 22:00 -2,5 C 62 % 1018,2 hPa 0,0 l/m 25,6 km/h (4 Bft) O 0,00 h 0,000 mm 0,0 UV-I 0 W/m -8,8 C -15,3 C 32,0 km/h (5 Bft) 0,00 %
05.02.2015 23:00 -2,4 C 63 % 1018,4 hPa 0,0 l/m 21,5 km/h (4 Bft) O 0,00 h 0,000 mm 0,0 UV-I 0 W/m -8,4 C -13,1 C 30,0 km/h (5 Bft) 0,00 %
06.02.2015 00:00 -2,6 C 61 % 1018,7 hPa 0,0 l/m 19,4 km/h (3 Bft) O 0,00 h 0,000 mm 0,0 UV-I 0 W/m -9,1 C -12,6 C 26,1 km/h (4 Bft) 0,00 %
06.02.2015 01:00 -3,0 C 61 % 1018,8 hPa 0,0 l/m 18,4 km/h (3 Bft) O 0,00 h 0,000 mm 0,0 UV-I 0 W/m -9,4 C -12,1 C 23,9 km/h (4 Bft) 0,00 %
06.02.2015 02:00 -3,4 C 62 % 1019,0 hPa 0,0 l/m 16,8 km/h (3 Bft) O-SO 0,00 h 0,000 mm 0,0 UV-I 0 W/m -9,5 C -11,8 C 22,0 km/h (4 Bft) 0,00 %
06.02.2015 03:00 -4,1 C 66 % 1018,6 hPa 0,0 l/m 13,6 km/h (3 Bft) O-SO 0,00 h 0,000 mm 0,0 UV-I 0 W/m -9,4 C -10,1 C 16,9 km/h (3 Bft) 0,00 %
06.02.2015 04:00 -3,8 C 67 % 1018,6 hPa 0,0 l/m 9,3 km/h (2 Bft) O-SO 0,00 h 0,000 mm 0,0 UV-I 0 W/m -9,0 C -6,8 C 12,9 km/h (3 Bft) 0,00 %
06.02.2015 05:00 -3,6 C 67 % 1018,5 hPa 0,0 l/m 12,0 km/h (2 Bft) O-SO 0,00 h 0,000 mm 0,0 UV-I 0 W/m -8,8 C -8,7 C 14,8 km/h (3 Bft) 0,00 %
06.02.2015 06:00 -3,5 C 68 % 1018,7 hPa 0,0 l/m 10,1 km/h (2 Bft) O 0,00 h 0,000 mm 0,0 UV-I 0 W/m -8,6 C -7,5 C 15,8 km/h (3 Bft) 0,00 %
06.02.2015 07:00 -3,6 C 69 % 1019,1 hPa 0,0 l/m 10,1 km/h (2 Bft) O-NO 0,00 h 0,000 mm 0,0 UV-I 0 W/m -8,5 C -7,3 C 14,9 km/h (3 Bft) 0,00 %
06.02.2015 08:00 -3,5 C 67 % 1019,8 hPa 0,0 l/m 11,4 km/h (2 Bft) O 0,00 h 0,000 mm 0,0 UV-I 18 W/m -8,8 C -8,7 C 15,8 km/h (3 Bft) 0,00 %
06.02.2015 09:00 -3,6 C 68 % 1020,4 hPa 0,0 l/m 11,5 km/h (2 Bft) O 0,00 h 0,000 mm 1,0 UV-I 22 W/m -8,7 C -8,3 C 16,8 km/h (3 Bft) 0,00 %
06.02.2015 10:00 -3,5 C 67 % 1020,8 hPa 0,0 l/m 8,2 km/h (2 Bft) O 0,25 h 0,000 mm 1,0 UV-I 94 W/m -8,7 C -5,8 C 11,9 km/h (2 Bft) 0,00 %
06.02.2015 11:00 -3,2 C 62 % 1020,9 hPa 0,0 l/m 11,5 km/h (2 Bft) O 0,00 h 0,000 mm 1,0 UV-I 98 W/m -9,4 C -7,9 C 16,8 km/h (3 Bft) 0,00 %
06.02.2015 12:00 -3,1 C 60 % 1020,7 hPa 0,0 l/m 8,2 km/h (2 Bft) O-SO 0,25 h 0,000 mm 1,0 UV-I 186 W/m -9,8 C -5,7 C 10,9 km/h (2 Bft) 0,00 %
06.02.2015 13:00 -3,2 C 59 % 1020,9 hPa 0,0 l/m 12,9 km/h (3 Bft) O-SO 0,00 h 0,000 mm 1,0 UV-I 96 W/m -10,1 C -9,1 C 15,9 km/h (3 Bft) 0,00 %
06.02.2015 14:00 -2,8 C 59 % 1021,0 hPa 0,0 l/m 7,6 km/h (2 Bft) O 0,00 h 0,000 mm 1,0 UV-I 111 W/m -9,7 C -6,2 C 11,9 km/h (2 Bft) 0,00 %
06.02.2015 15:00 -2,8 C 59 % 1021,3 hPa 0,0 l/m 1,4 km/h (1 Bft) O 0,00 h 0,000 mm 1,0 UV-I 84 W/m -9,7 C -2,8 C 4,0 km/h (1 Bft) 0,00 %
06.02.2015 16:00 -3,0 C 59 % 1021,8 hPa 0,0 l/m 1,2 km/h (1 Bft) O 0,00 h 0,000 mm 0,0 UV-I 21 W/m -10,0 C -3,0 C 4,0 km/h (1 Bft) 0,00 %
06.02.2015 17:00 -3,7 C 59 % 1022,4 hPa 0,0 l/m 0,0 km/h (0 Bft) N 0,00 h 0,000 mm 0,0 UV-I 0 W/m -10,5 C -3,7 C 0,0 km/h (0 Bft) 0,00 %
06.02.2015 18:00 -3,6 C 59 % 1022,9 hPa 0,0 l/m 0,0 km/h (0 Bft) N 0,00 h 0,000 mm 0,0 UV-I 0 W/m -10,5 C -3,6 C 0,0 km/h (0 Bft) 0,00 %
06.02.2015 19:00 -3,7 C 59 % 1023,4 hPa 0,0 l/m 0,3 km/h (0 Bft) N 0,00 h 0,000 mm 0,0 UV-I 0 W/m -10,4 C -3,7 C 2,0 km/h (1 Bft) 0,00 %
06.02.2015 20:00 -4,2 C 65 % 1024,1 hPa 0,0 l/m 0,0 km/h (0 Bft) N 0,00 h 0,000 mm 0,0 UV-I 0 W/m -9,8 C -4,2 C 0,0 km/h (0 Bft) 0,00 %
06.02.2015 21:00 -3,8 C 63 % 1024,4 hPa 0,0 l/m 0,2 km/h (0 Bft) O-SO 0,00 h 0,000 mm 0,0 UV-I 0 W/m -9,9 C -3,8 C 2,0 km/h (1 Bft) 0,00 %
06.02.2015 22:00 -3,7 C 59 % 1024,5 hPa 0,0 l/m 2,6 km/h (1 Bft) O 0,00 h 0,000 mm 0,0 UV-I 0 W/m -10,5 C -3,7 C 5,0 km/h (1 Bft) 0,00 %
06.02.2015 23:00 -3,6 C 55 % 1024,8 hPa 0,0 l/m 3,6 km/h (1 Bft) O 0,00 h 0,000 mm 0,0 UV-I 0 W/m -11,4 C -3,7 C 4,9 km/h (1 Bft) 0,00 %
07.02.2015 00:00 -3,6 C 54 % 1025,5 hPa 0,0 l/m 4,3 km/h (1 Bft) O-SO 0,00 h 0,000 mm 0,0 UV-I 0 W/m -11,7 C -4,1 C 7,9 km/h (2 Bft) 0,00 %
07.02.2015 01:00 -3,8 C 55 % 1026,0 hPa 0,0 l/m 3,1 km/h (1 Bft) NO 0,00 h 0,000 mm 0,0 UV-I 0 W/m -11,5 C -3,8 C 6,9 km/h (2 Bft) 0,00 %
07.02.2015 02:00 -3,9 C 56 % 1026,3 hPa 0,0 l/m 1,1 km/h (1 Bft) N 0,00 h 0,000 mm 0,0 UV-I 0 W/m -11,4 C -3,9 C 4,0 km/h (1 Bft) 0,00 %
07.02.2015 03:00 -4,1 C 56 % 1026,9 hPa 0,0 l/m 0,2 km/h (0 Bft) N 0,00 h 0,000 mm 0,0 UV-I 0 W/m -11,6 C -4,1 C 2,0 km/h (1 Bft) 0,00 %
07.02.2015 04:00 -4,2 C 55 % 1027,0 hPa 0,0 l/m 0,3 km/h (0 Bft) N 0,00 h 0,000 mm 0,0 UV-I 0 W/m -12,0 C -4,2 C 2,0 km/h (1 Bft) 0,00 %
07.02.2015 05:00 -4,3 C 54 % 1027,5 hPa 0,0 l/m 1,9 km/h (1 Bft) O 0,00 h 0,000 mm 0,0 UV-I 0 W/m -12,2 C -4,3 C 5,0 km/h (1 Bft) 0,00 %
07.02.2015 06:00 -4,4 C 55 % 1027,7 hPa 0,0 l/m 1,6 km/h (1 Bft) O-NO 0,00 h 0,000 mm 0,0 UV-I 0 W/m -12,2 C -4,4 C 5,0 km/h (1 Bft) 0,00 %
07.02.2015 07:00 -4,6 C 56 % 1028,0 hPa 0,0 l/m 2,0 km/h (1 Bft) N-NO 0,00 h 0,000 mm 0,0 UV-I 3 W/m -12,1 C -4,6 C 4,0 km/h (1 Bft) 0,00 %
07.02.2015 08:00 -4,3 C 54 % 1028,2 hPa 0,0 l/m 2,3 km/h (1 Bft) O 0,00 h 0,000 mm 1,0 UV-I 45 W/m -12,3 C -4,3 C 4,0 km/h (1 Bft) 0,00 %
07.02.2015 09:00 -3,8 C 52 % 1028,2 hPa 0,0 l/m 1,8 km/h (1 Bft) O-SO 0,00 h 0,000 mm 1,0 UV-I 113 W/m -12,3 C -3,8 C 4,0 km/h (1 Bft) 0,00 %
07.02.2015 10:00 -3,2 C 50 % 1028,2 hPa 0,0 l/m 1,7 km/h (1 Bft) N 0,00 h 0,000 mm 2,0 UV-I 166 W/m -12,2 C -3,2 C 3,0 km/h (1 Bft) 0,00 %
07.02.2015 11:00 -2,8 C 49 % 1027,9 hPa 0,0 l/m 0,9 km/h (0 Bft) O-SO 0,00 h 0,000 mm 2,0 UV-I 118 W/m -12,1 C -2,8 C 3,0 km/h (1 Bft) 0,00 %
07.02.2015 12:00 -2,5 C 49 % 1027,2 hPa 0,0 l/m 0,0 km/h (0 Bft) N 0,00 h 0,000 mm 2,0 UV-I 118 W/m -11,9 C -2,5 C 0,0 km/h (0 Bft) 0,00 %
07.02.2015 13:00 -2,5 C 51 % 1026,5 hPa 0,0 l/m 0,1 km/h (0 Bft) N 0,00 h 0,000 mm 2,0 UV-I 137 W/m -11,3 C -2,5 C 1,0 km/h (0 Bft) 0,00 %
07.02.2015 14:00 -2,2 C 51 % 1025,7 hPa 0,0 l/m 0,0 km/h (0 Bft) N 0,75 h 0,000 mm 1,7 UV-I 207 W/m -11,0 C -2,2 C 0,0 km/h (0 Bft) 0,00 %
07.02.2015 15:00 -1,9 C 50 % 1025,1 hPa 0,0 l/m 0,0 km/h (0 Bft) N 1,00 h 0,000 mm 1,0 UV-I 184 W/m -10,9 C -1,9 C 0,0 km/h (0 Bft) 0,00 %
07.02.2015 16:00 -2,4 C 51 % 1025,1 hPa 0,0 l/m 0,0 km/h (0 Bft) N 0,50 h 0,000 mm 1,0 UV-I 52 W/m -11,3 C -2,4 C 0,0 km/h (0 Bft) 0,00 %
07.02.2015 17:00 -4,2 C 55 % 1025,6 hPa 0,0 l/m 0,0 km/h (0 Bft) N 0,25 h 0,000 mm 0,0 UV-I 0 W/m -11,9 C -4,2 C 0,0 km/h (0 Bft) 0,00 %
07.02.2015 18:00 -5,0 C 59 % 1025,3 hPa 0,0 l/m 0,1 km/h (0 Bft) N 0,00 h 0,000 mm 0,0 UV-I 0 W/m -11,8 C -5,0 C 1,0 km/h (0 Bft) 0,00 %
07.02.2015 19:00 -5,2 C 60 % 1024,8 hPa 0,0 l/m 0,0 km/h (0 Bft) W-SW 0,00 h 0,000 mm 0,0 UV-I 0 W/m -11,7 C -5,2 C 0,0 km/h (0 Bft) 0,00 %
07.02.2015 20:00 -5,3 C 60 % 1024,7 hPa 0,0 l/m 0,6 km/h (0 Bft) N 0,00 h 0,000 mm 0,0 UV-I 0 W/m -11,8 C -5,3 C 3,0 km/h (1 Bft) 0,00 %
07.02.2015 21:00 -5,4 C 60 % 1024,3 hPa 0,0 l/m 1,1 km/h (0 Bft) W-SW 0,00 h 0,000 mm 0,0 UV-I 0 W/m -11,9 C -5,4 C 2,0 km/h (1 Bft) 0,00 %
07.02.2015 22:00 -5,1 C 60 % 1023,0 hPa 0,0 l/m 0,4 km/h (0 Bft) W-SW 0,00 h 0,000 mm 0,0 UV-I 0 W/m -11,6 C -5,1 C 3,0 km/h (1 Bft) 0,00 %
07.02.2015 23:00 -4,7 C 60 % 1022,3 hPa 0,0 l/m 4,8 km/h (1 Bft) W-SW 0,00 h 0,000 mm 0,0 UV-I 0 W/m -11,4 C -6,2 C 9,9 km/h (2 Bft) 0,00 %
08.02.2015 00:00 -4,6 C 59 % 1022,0 hPa 0,0 l/m 5,9 km/h (2 Bft) W-SW 0,00 h 0,000 mm 0,0 UV-I 0 W/m -11,4 C -6,7 C 10,9 km/h (2 Bft) 0,00 %
08.02.2015 01:00 -4,4 C 59 % 1021,3 hPa 0,0 l/m 3,2 km/h (1 Bft) SW 0,00 h 0,000 mm 0,0 UV-I 0 W/m -11,2 C -4,4 C 6,9 km/h (2 Bft) 0,00 %
08.02.2015 02:00 -3,9 C 58 % 1020,0 hPa 0,0 l/m 5,1 km/h (1 Bft) W-SW 0,00 h 0,000 mm 0,0 UV-I 0 W/m -10,9 C -5,2 C 5,9 km/h (2 Bft) 0,00 %
08.02.2015 03:00 -3,5 C 57 % 1018,5 hPa 0,0 l/m 2,5 km/h (1 Bft) O 0,00 h 0,000 mm 0,0 UV-I 0 W/m -10,8 C -3,5 C 6,0 km/h (2 Bft) 0,00 %
08.02.2015 04:00 -3,7 C 68 % 1018,5 hPa 0,0 l/m 5,4 km/h (1 Bft) W-SW 0,00 h 0,000 mm 0,0 UV-I 0 W/m -8,8 C -4,0 C 9,9 km/h (2 Bft) 0,00 %
08.02.2015 05:00 -3,8 C 76 % 1017,4 hPa 0,0 l/m 6,8 km/h (2 Bft) SW 0,00 h 0,000 mm 0,0 UV-I 0 W/m -7,3 C -5,9 C 9,9 km/h (2 Bft) 0,00 %
08.02.2015 06:00 -3,1 C 74 % 1016,6 hPa 0,0 l/m 4,7 km/h (1 Bft) W-SW 0,00 h 0,000 mm 0,0 UV-I 0 W/m -7,1 C -3,6 C 8,9 km/h (2 Bft) 0,00 %
08.02.2015 07:00 -2,5 C 75 % 1016,3 hPa 0,0 l/m 5,0 km/h (1 Bft) W-SW 0,00 h 0,000 mm 0,0 UV-I 0 W/m -6,4 C -3,5 C 8,9 km/h (2 Bft) 0,00 %
08.02.2015 08:00 -2,2 C 80 % 1016,1 hPa 0,0 l/m 5,6 km/h (1 Bft) W-SW 0,00 h 0,000 mm 0,0 UV-I 41 W/m -5,1 C -3,5 C 9,9 km/h (2 Bft) 0,00 %
08.02.2015 09:00 -1,3 C 74 % 1016,7 hPa 0,0 l/m 5,1 km/h (1 Bft) SW 0,50 h 0,000 mm 1,0 UV-I 186 W/m -5,4 C -2,5 C 8,9 km/h (2 Bft) 0,00 %
08.02.2015 10:00 -0,7 C 70 % 1017,1 hPa 0,0 l/m 2,2 km/h (1 Bft) W-SW 1,00 h 0,000 mm 2,0 UV-I 317 W/m -5,5 C -0,7 C 4,9 km/h (1 Bft) 0,00 %
08.02.2015 11:00 0,6 C 61 % 1017,4 hPa 0,0 l/m 1,5 km/h (1 Bft) W-SW 1,00 h 0,000 mm 2,7 UV-I 358 W/m -6,1 C 0,6 C 4,0 km/h (1 Bft) 0,00 %
08.02.2015 12:00 0,2 C 63 % 1017,5 hPa 0,0 l/m 0,8 km/h (0 Bft) W-SW 0,75 h 0,000 mm 1,7 UV-I 273 W/m -6,1 C 0,2 C 3,0 km/h (1 Bft) 0,00 %
08.02.2015 13:00 -0,2 C 62 % 1017,8 hPa 0,0 l/m 8,5 km/h (2 Bft) W-SW 0,75 h 0,000 mm 1,7 UV-I 246 W/m -6,5 C -3,0 C 12,9 km/h (3 Bft) 0,00 %
08.02.2015 14:00 -3,0 C 71 % 1019,6 hPa 0,0 l/m 6,0 km/h (2 Bft) W-SW 1,00 h 0,000 mm 1,3 UV-I 233 W/m -7,7 C -5,5 C 10,0 km/h (2 Bft) 0,00 %
08.02.2015 15:00 -2,2 C 67 % 1020,2 hPa 0,0 l/m 0,9 km/h (0 Bft) W-SW 0,50 h 0,000 mm 1,0 UV-I 130 W/m -7,6 C -2,2 C 2,0 km/h (1 Bft) 0,00 %
08.02.2015 16:00 -2,7 C 56 % 1021,3 hPa 0,0 l/m 2,6 km/h (1 Bft) W-SW 0,50 h 0,000 mm 1,0 UV-I 54 W/m -10,2 C -2,9 C 6,0 km/h (2 Bft) 0,00 %
08.02.2015 17:00 -3,7 C 60 % 1022,3 hPa 0,0 l/m 3,1 km/h (1 Bft) W-SW 0,00 h 0,000 mm 0,0 UV-I 0 W/m -10,4 C -3,7 C 5,9 km/h (2 Bft) 0,00 %
08.02.2015 18:00 -4,3 C 64 % 1023,6 hPa 0,0 l/m 2,4 km/h (1 Bft) W-SW 0,00 h 0,000 mm 0,0 UV-I 0 W/m -10,0 C -4,3 C 5,9 km/h (2 Bft) 0,00 %
08.02.2015 19:00 -4,0 C 65 % 1024,6 hPa 0,0 l/m 3,2 km/h (1 Bft) SW 0,00 h 0,000 mm 0,0 UV-I 0 W/m -9,6 C -4,0 C 6,9 km/h (2 Bft) 0,00 %
08.02.2015 20:00 -3,7 C 64 % 1025,3 hPa 0,0 l/m 2,3 km/h (1 Bft) W-SW 0,00 h 0,000 mm 0,0 UV-I 0 W/m -9,5 C -3,7 C 4,9 km/h (1 Bft) 0,00 %
08.02.2015 21:00 -3,6 C 60 % 1025,8 hPa 0,0 l/m 1,1 km/h (0 Bft) W-SW 0,00 h 0,000 mm 0,0 UV-I 0 W/m -10,2 C -3,6 C 3,0 km/h (1 Bft) 0,00 %
08.02.2015 22:00 -3,2 C 57 % 1026,1 hPa 0,0 l/m 3,3 km/h (1 Bft) W-SW 0,00 h 0,000 mm 0,0 UV-I 0 W/m -10,6 C -3,2 C 5,9 km/h (2 Bft) 0,00 %
08.02.2015 23:00 -3,4 C 62 % 1026,8 hPa 0,0 l/m 3,1 km/h (1 Bft) W-SW 0,00 h 0,000 mm 0,0 UV-I 0 W/m -9,5 C -4,2 C 5,9 km/h (2 Bft) 0,00 %
Min-Datum _ 04.02.15 07.02.15 02.02.15 - 02.02.15 - - - - - 04.02.15 05.02.15 02.02.15 02.02.15
_ Min-Zeit 06:15 12:30 00:00 - 00:00 - - - - - 06:15 10:30 00:00 00:00
Minimum _ -9,4 C 47 % 994,6 hPa - 0,0 km/h (0 Bft) - - - - - -13,5 C -18,1 C 0,0 km/h (0 Bft) 0,00 %
Max-Datum _ 02.02.15 02.02.15 07.02.15 02.02.15 05.02.15 - 02.02.15 02.02.15 08.02.15 05.02.15 02.02.15 02.02.15 05.02.15 02.02.15
_ Max-Zeit 13:15 03:45 08:45 13:30 11:15 - 10:00 00:00 11:00 12:45 11:45 14:30 11:15 00:00
Maximum _ 1,7 C 82 % 1028,3 hPa 0,3 l/m 34,6 km/h
O-SO (5 Bft)
- 0,25 h 0,000 mm 3,0 UV-I 593 W/m -3,1 C 1,7 C 44,3 km/h
O-SO (6 Bft)
0,00 %
Durchschnitt _ -3,2 C 66 % 1013,1 hPa #0,9 l/m 3,9 km/h (1 Bft) O #31:30 h #0,000 mm 1,4 UV-I 170 W/m -8,8 C -4,7 C 6,1 km/h (2 Bft) 0,00 %